sensor_id;sensor_type;location;lat;lon;timestamp;P1;durP1;ratioP1;P2;durP2;ratioP2
43801;SDS011;29429;51.074;13.764;2022-08-19T00:01:57;12.25;;;11.00;;
43801;SDS011;29429;51.074;13.764;2022-08-19T00:04:27;13.13;;;11.90;;
43801;SDS011;29429;51.074;13.764;2022-08-19T00:06:58;12.88;;;11.23;;
43801;SDS011;29429;51.074;13.764;2022-08-19T00:09:26;12.00;;;10.68;;
43801;SDS011;29429;51.074;13.764;2022-08-19T00:11:54;12.38;;;11.07;;
43801;SDS011;29429;51.074;13.764;2022-08-19T00:14:23;13.30;;;11.90;;
43801;SDS011;29429;51.074;13.764;2022-08-19T00:16:52;12.90;;;11.48;;
43801;SDS011;29429;51.074;13.764;2022-08-19T00:19:20;12.90;;;11.57;;
43801;SDS011;29429;51.074;13.764;2022-08-19T00:21:49;13.32;;;11.70;;
43801;SDS011;29429;51.074;13.764;2022-08-19T00:24:17;11.95;;;10.75;;
43801;SDS011;29429;51.074;13.764;2022-08-19T00:26:45;13.45;;;12.05;;
43801;SDS011;29429;51.074;13.764;2022-08-19T00:29:13;12.98;;;11.23;;
43801;SDS011;29429;51.074;13.764;2022-08-19T00:31:44;13.77;;;11.60;;
43801;SDS011;29429;51.074;13.764;2022-08-19T00:34:12;12.52;;;11.23;;
43801;SDS011;29429;51.074;13.764;2022-08-19T00:36:40;13.85;;;12.38;;
43801;SDS011;29429;51.074;13.764;2022-08-19T00:39:08;14.10;;;11.75;;
43801;SDS011;29429;51.074;13.764;2022-08-19T00:41:36;14.00;;;12.63;;
43801;SDS011;29429;51.074;13.764;2022-08-19T00:44:05;12.77;;;11.48;;
43801;SDS011;29429;51.074;13.764;2022-08-19T00:46:44;14.13;;;12.27;;
43801;SDS011;29429;51.074;13.764;2022-08-19T00:49:40;14.00;;;12.60;;
43801;SDS011;29429;51.074;13.764;2022-08-19T00:52:21;15.20;;;13.35;;
43801;SDS011;29429;51.074;13.764;2022-08-19T00:54:55;15.38;;;13.77;;
43801;SDS011;29429;51.074;13.764;2022-08-19T00:57:26;15.00;;;13.45;;
43801;SDS011;29429;51.074;13.764;2022-08-19T01:00:01;16.00;;;13.70;;
43801;SDS011;29429;51.074;13.764;2022-08-19T01:02:33;16.08;;;14.48;;
43801;SDS011;29429;51.074;13.764;2022-08-19T01:05:01;16.35;;;14.65;;
43801;SDS011;29429;51.074;13.764;2022-08-19T01:07:33;14.73;;;13.32;;
43801;SDS011;29429;51.074;13.764;2022-08-19T01:10:04;15.05;;;13.55;;
43801;SDS011;29429;51.074;13.764;2022-08-19T01:12:35;16.40;;;14.70;;
43801;SDS011;29429;51.074;13.764;2022-08-19T01:15:04;15.93;;;14.40;;
43801;SDS011;29429;51.074;13.764;2022-08-19T01:17:36;17.25;;;14.60;;
43801;SDS011;29429;51.074;13.764;2022-08-19T01:20:09;14.93;;;13.38;;
43801;SDS011;29429;51.074;13.764;2022-08-19T01:22:48;15.80;;;14.20;;
43801;SDS011;29429;51.074;13.764;2022-08-19T01:25:19;17.50;;;13.75;;
43801;SDS011;29429;51.074;13.764;2022-08-19T01:27:54;16.13;;;14.50;;
43801;SDS011;29429;51.074;13.764;2022-08-19T01:30:29;15.70;;;14.20;;
43801;SDS011;29429;51.074;13.764;2022-08-19T01:32:59;16.73;;;14.93;;
43801;SDS011;29429;51.074;13.764;2022-08-19T01:35:27;18.55;;;15.50;;
43801;SDS011;29429;51.074;13.764;2022-08-19T01:37:59;19.13;;;16.67;;
43801;SDS011;29429;51.074;13.764;2022-08-19T01:40:35;16.08;;;14.38;;
43801;SDS011;29429;51.074;13.764;2022-08-19T01:43:06;18.83;;;14.73;;
43801;SDS011;29429;51.074;13.764;2022-08-19T01:45:34;16.95;;;15.23;;
43801;SDS011;29429;51.074;13.764;2022-08-19T01:48:02;16.73;;;15.00;;
43801;SDS011;29429;51.074;13.764;2022-08-19T01:50:31;16.30;;;13.90;;
43801;SDS011;29429;51.074;13.764;2022-08-19T01:53:00;16.60;;;14.30;;
43801;SDS011;29429;51.074;13.764;2022-08-19T01:55:34;16.73;;;14.93;;
43801;SDS011;29429;51.074;13.764;2022-08-19T01:58:07;17.58;;;15.07;;
43801;SDS011;29429;51.074;13.764;2022-08-19T02:00:43;15.10;;;13.60;;
43801;SDS011;29429;51.074;13.764;2022-08-19T02:03:11;23.73;;;15.93;;
43801;SDS011;29429;51.074;13.764;2022-08-19T02:05:39;17.65;;;15.18;;
43801;SDS011;29429;51.074;13.764;2022-08-19T02:08:06;18.02;;;16.23;;
43801;SDS011;29429;51.074;13.764;2022-08-19T02:10:37;18.35;;;15.70;;
43801;SDS011;29429;51.074;13.764;2022-08-19T02:13:08;19.63;;;15.93;;
43801;SDS011;29429;51.074;13.764;2022-08-19T02:15:37;17.63;;;15.90;;
43801;SDS011;29429;51.074;13.764;2022-08-19T02:18:04;17.70;;;15.60;;
43801;SDS011;29429;51.074;13.764;2022-08-19T02:20:31;18.60;;;16.60;;
43801;SDS011;29429;51.074;13.764;2022-08-19T02:22:58;17.95;;;16.25;;
43801;SDS011;29429;51.074;13.764;2022-08-19T02:25:27;15.25;;;13.70;;
43801;SDS011;29429;51.074;13.764;2022-08-19T02:27:54;17.60;;;15.77;;
43801;SDS011;29429;51.074;13.764;2022-08-19T02:30:21;18.10;;;16.20;;
43801;SDS011;29429;51.074;13.764;2022-08-19T02:32:48;15.90;;;14.30;;
43801;SDS011;29429;51.074;13.764;2022-08-19T02:35:15;19.05;;;17.02;;
43801;SDS011;29429;51.074;13.764;2022-08-19T02:37:43;17.55;;;15.48;;
43801;SDS011;29429;51.074;13.764;2022-08-19T02:40:30;15.43;;;13.93;;
43801;SDS011;29429;51.074;13.764;2022-08-19T02:43:04;14.75;;;13.23;;
43801;SDS011;29429;51.074;13.764;2022-08-19T02:45:34;20.50;;;15.93;;
43801;SDS011;29429;51.074;13.764;2022-08-19T02:48:07;17.63;;;15.73;;
43801;SDS011;29429;51.074;13.764;2022-08-19T02:50:47;16.55;;;14.70;;
43801;SDS011;29429;51.074;13.764;2022-08-19T02:53:19;15.60;;;14.10;;
43801;SDS011;29429;51.074;13.764;2022-08-19T02:55:52;16.05;;;14.35;;
43801;SDS011;29429;51.074;13.764;2022-08-19T02:58:20;15.70;;;14.05;;
43801;SDS011;29429;51.074;13.764;2022-08-19T03:00:52;14.20;;;12.70;;
43801;SDS011;29429;51.074;13.764;2022-08-19T03:03:21;18.45;;;16.50;;
43801;SDS011;29429;51.074;13.764;2022-08-19T03:05:49;17.45;;;14.75;;
43801;SDS011;29429;51.074;13.764;2022-08-19T03:08:22;18.63;;;16.63;;
43801;SDS011;29429;51.074;13.764;2022-08-19T03:10:52;18.05;;;16.00;;
43801;SDS011;29429;51.074;13.764;2022-08-19T03:13:19;15.70;;;14.20;;
43801;SDS011;29429;51.074;13.764;2022-08-19T03:15:47;17.70;;;15.93;;
43801;SDS011;29429;51.074;13.764;2022-08-19T03:18:14;16.38;;;14.68;;
43801;SDS011;29429;51.074;13.764;2022-08-19T03:20:50;19.55;;;17.45;;
43801;SDS011;29429;51.074;13.764;2022-08-19T03:23:22;19.58;;;17.65;;
43801;SDS011;29429;51.074;13.764;2022-08-19T03:25:50;19.38;;;17.13;;
43801;SDS011;29429;51.074;13.764;2022-08-19T03:28:40;20.52;;;18.00;;
43801;SDS011;29429;51.074;13.764;2022-08-19T03:31:23;20.80;;;17.67;;
43801;SDS011;29429;51.074;13.764;2022-08-19T03:34:13;22.00;;;19.38;;
43801;SDS011;29429;51.074;13.764;2022-08-19T03:36:45;20.90;;;17.95;;
43801;SDS011;29429;51.074;13.764;2022-08-19T03:39:12;17.92;;;16.15;;
43801;SDS011;29429;51.074;13.764;2022-08-19T03:41:41;16.90;;;15.30;;
43801;SDS011;29429;51.074;13.764;2022-08-19T03:44:14;16.60;;;14.90;;
43801;SDS011;29429;51.074;13.764;2022-08-19T03:46:48;20.98;;;17.65;;
43801;SDS011;29429;51.074;13.764;2022-08-19T03:49:24;18.33;;;16.42;;
43801;SDS011;29429;51.074;13.764;2022-08-19T03:51:55;21.05;;;18.88;;
43801;SDS011;29429;51.074;13.764;2022-08-19T03:54:26;19.48;;;17.48;;
43801;SDS011;29429;51.074;13.764;2022-08-19T03:56:54;22.10;;;18.88;;
43801;SDS011;29429;51.074;13.764;2022-08-19T03:59:27;19.63;;;17.65;;
43801;SDS011;29429;51.074;13.764;2022-08-19T04:01:59;20.77;;;18.58;;
43801;SDS011;29429;51.074;13.764;2022-08-19T04:04:31;18.27;;;15.93;;
43801;SDS011;29429;51.074;13.764;2022-08-19T04:06:58;16.08;;;14.48;;
43801;SDS011;29429;51.074;13.764;2022-08-19T04:09:26;18.45;;;16.63;;
43801;SDS011;29429;51.074;13.764;2022-08-19T04:11:54;18.95;;;16.77;;
43801;SDS011;29429;51.074;13.764;2022-08-19T04:14:24;17.25;;;15.50;;
43801;SDS011;29429;51.074;13.764;2022-08-19T04:19:26;20.60;;;18.42;;
43801;SDS011;29429;51.074;13.764;2022-08-19T04:21:56;18.50;;;16.52;;
43801;SDS011;29429;51.074;13.764;2022-08-19T04:24:24;22.92;;;17.52;;
43801;SDS011;29429;51.074;13.764;2022-08-19T04:26:51;20.38;;;18.25;;
43801;SDS011;29429;51.074;13.764;2022-08-19T04:29:20;20.42;;;18.35;;
43801;SDS011;29429;51.074;13.764;2022-08-19T04:31:51;19.88;;;16.73;;
43801;SDS011;29429;51.074;13.764;2022-08-19T04:34:22;20.92;;;18.30;;
43801;SDS011;29429;51.074;13.764;2022-08-19T04:36:55;20.08;;;18.00;;
43801;SDS011;29429;51.074;13.764;2022-08-19T04:39:26;21.20;;;18.25;;
43801;SDS011;29429;51.074;13.764;2022-08-19T04:42:15;24.45;;;18.85;;
43801;SDS011;29429;51.074;13.764;2022-08-19T04:45:03;20.13;;;17.98;;
43801;SDS011;29429;51.074;13.764;2022-08-19T04:47:38;20.55;;;17.67;;
43801;SDS011;29429;51.074;13.764;2022-08-19T04:50:23;20.30;;;17.98;;
43801;SDS011;29429;51.074;13.764;2022-08-19T04:52:51;18.48;;;16.58;;
43801;SDS011;29429;51.074;13.764;2022-08-19T04:55:19;19.80;;;17.73;;
43801;SDS011;29429;51.074;13.764;2022-08-19T04:57:46;20.20;;;17.90;;
43801;SDS011;29429;51.074;13.764;2022-08-19T05:00:13;19.55;;;17.45;;
43801;SDS011;29429;51.074;13.764;2022-08-19T05:02:40;20.23;;;18.13;;
43801;SDS011;29429;51.074;13.764;2022-08-19T05:05:08;20.45;;;18.45;;
43801;SDS011;29429;51.074;13.764;2022-08-19T05:07:35;20.80;;;17.58;;
43801;SDS011;29429;51.074;13.764;2022-08-19T05:10:04;19.00;;;16.48;;
43801;SDS011;29429;51.074;13.764;2022-08-19T05:12:32;18.60;;;15.73;;
43801;SDS011;29429;51.074;13.764;2022-08-19T05:14:59;18.60;;;15.80;;
43801;SDS011;29429;51.074;13.764;2022-08-19T05:17:28;17.98;;;16.17;;
43801;SDS011;29429;51.074;13.764;2022-08-19T05:20:03;19.25;;;17.35;;
43801;SDS011;29429;51.074;13.764;2022-08-19T05:22:51;17.90;;;15.98;;
43801;SDS011;29429;51.074;13.764;2022-08-19T05:25:19;18.95;;;17.05;;
43801;SDS011;29429;51.074;13.764;2022-08-19T05:27:48;16.45;;;14.93;;
43801;SDS011;29429;51.074;13.764;2022-08-19T05:30:15;17.95;;;16.25;;
43801;SDS011;29429;51.074;13.764;2022-08-19T05:32:43;20.90;;;17.55;;
43801;SDS011;29429;51.074;13.764;2022-08-19T05:35:10;18.25;;;15.98;;
43801;SDS011;29429;51.074;13.764;2022-08-19T05:37:38;17.98;;;16.08;;
43801;SDS011;29429;51.074;13.764;2022-08-19T05:40:09;17.50;;;15.77;;
43801;SDS011;29429;51.074;13.764;2022-08-19T05:42:37;16.42;;;14.77;;
43801;SDS011;29429;51.074;13.764;2022-08-19T05:45:04;15.52;;;13.93;;
43801;SDS011;29429;51.074;13.764;2022-08-19T05:47:33;16.55;;;14.95;;
43801;SDS011;29429;51.074;13.764;2022-08-19T05:50:05;17.73;;;15.88;;
43801;SDS011;29429;51.074;13.764;2022-08-19T05:52:33;16.13;;;14.52;;
43801;SDS011;29429;51.074;13.764;2022-08-19T05:55:02;21.23;;;17.33;;
43801;SDS011;29429;51.074;13.764;2022-08-19T05:57:29;20.42;;;17.27;;
43801;SDS011;29429;51.074;13.764;2022-08-19T05:59:57;19.02;;;17.20;;
43801;SDS011;29429;51.074;13.764;2022-08-19T06:02:26;18.95;;;16.63;;
43801;SDS011;29429;51.074;13.764;2022-08-19T06:04:57;19.42;;;15.88;;
43801;SDS011;29429;51.074;13.764;2022-08-19T06:07:24;21.67;;;17.05;;
43801;SDS011;29429;51.074;13.764;2022-08-19T06:09:51;18.35;;;16.00;;
43801;SDS011;29429;51.074;13.764;2022-08-19T06:12:28;17.00;;;15.20;;
43801;SDS011;29429;51.074;13.764;2022-08-19T06:14:59;17.55;;;15.65;;
43801;SDS011;29429;51.074;13.764;2022-08-19T06:17:30;16.50;;;14.77;;
43801;SDS011;29429;51.074;13.764;2022-08-19T06:19:58;14.68;;;13.25;;
43801;SDS011;29429;51.074;13.764;2022-08-19T06:22:25;14.70;;;12.38;;
43801;SDS011;29429;51.074;13.764;2022-08-19T06:24:54;13.50;;;11.65;;
43801;SDS011;29429;51.074;13.764;2022-08-19T06:27:22;12.07;;;10.95;;
43801;SDS011;29429;51.074;13.764;2022-08-19T06:29:49;12.02;;;10.82;;
43801;SDS011;29429;51.074;13.764;2022-08-19T06:32:16;12.30;;;10.88;;
43801;SDS011;29429;51.074;13.764;2022-08-19T06:34:45;12.75;;;11.55;;
43801;SDS011;29429;51.074;13.764;2022-08-19T06:37:12;11.73;;;10.50;;
43801;SDS011;29429;51.074;13.764;2022-08-19T06:39:41;11.82;;;10.63;;
43801;SDS011;29429;51.074;13.764;2022-08-19T06:42:11;11.68;;;10.15;;
43801;SDS011;29429;51.074;13.764;2022-08-19T06:44:43;12.98;;;10.45;;
43801;SDS011;29429;51.074;13.764;2022-08-19T06:47:19;11.15;;;9.93;;
43801;SDS011;29429;51.074;13.764;2022-08-19T06:49:53;12.70;;;9.82;;
43801;SDS011;29429;51.074;13.764;2022-08-19T06:52:31;12.10;;;10.82;;
43801;SDS011;29429;51.074;13.764;2022-08-19T06:55:03;11.73;;;10.52;;
43801;SDS011;29429;51.074;13.764;2022-08-19T06:57:32;12.52;;;11.13;;
43801;SDS011;29429;51.074;13.764;2022-08-19T07:00:00;14.00;;;12.50;;
43801;SDS011;29429;51.074;13.764;2022-08-19T07:02:27;15.30;;;13.38;;
43801;SDS011;29429;51.074;13.764;2022-08-19T07:04:54;14.48;;;12.98;;
43801;SDS011;29429;51.074;13.764;2022-08-19T07:07:24;14.70;;;12.73;;
43801;SDS011;29429;51.074;13.764;2022-08-19T07:09:51;15.48;;;13.93;;
43801;SDS011;29429;51.074;13.764;2022-08-19T07:12:28;16.10;;;14.40;;
43801;SDS011;29429;51.074;13.764;2022-08-19T07:15:02;17.42;;;15.48;;
43801;SDS011;29429;51.074;13.764;2022-08-19T07:17:35;19.10;;;16.33;;
43801;SDS011;29429;51.074;13.764;2022-08-19T07:20:05;17.45;;;15.02;;
43801;SDS011;29429;51.074;13.764;2022-08-19T07:22:36;18.73;;;16.55;;
43801;SDS011;29429;51.074;13.764;2022-08-19T07:25:05;18.60;;;16.50;;
43801;SDS011;29429;51.074;13.764;2022-08-19T07:27:34;18.20;;;16.25;;
43801;SDS011;29429;51.074;13.764;2022-08-19T07:30:05;16.30;;;14.50;;
43801;SDS011;29429;51.074;13.764;2022-08-19T07:32:37;19.00;;;17.02;;
43801;SDS011;29429;51.074;13.764;2022-08-19T07:35:06;19.33;;;17.33;;
43801;SDS011;29429;51.074;13.764;2022-08-19T07:37:35;23.90;;;17.55;;
43801;SDS011;29429;51.074;13.764;2022-08-19T07:40:03;19.38;;;17.10;;
43801;SDS011;29429;51.074;13.764;2022-08-19T07:42:33;19.73;;;17.63;;
43801;SDS011;29429;51.074;13.764;2022-08-19T07:45:00;19.75;;;16.90;;
43801;SDS011;29429;51.074;13.764;2022-08-19T07:47:27;18.10;;;16.23;;
43801;SDS011;29429;51.074;13.764;2022-08-19T07:50:14;17.73;;;15.82;;
43801;SDS011;29429;51.074;13.764;2022-08-19T07:52:44;18.13;;;16.20;;
43801;SDS011;29429;51.074;13.764;2022-08-19T07:55:15;20.30;;;17.75;;
43801;SDS011;29429;51.074;13.764;2022-08-19T07:58:06;18.58;;;16.27;;
43801;SDS011;29429;51.074;13.764;2022-08-19T08:00:34;19.77;;;15.77;;
43801;SDS011;29429;51.074;13.764;2022-08-19T08:03:01;18.83;;;16.40;;
43801;SDS011;29429;51.074;13.764;2022-08-19T08:05:28;22.38;;;17.55;;
43801;SDS011;29429;51.074;13.764;2022-08-19T08:08:14;21.40;;;17.35;;
43801;SDS011;29429;51.074;13.764;2022-08-19T08:10:59;21.23;;;17.83;;
43801;SDS011;29429;51.074;13.764;2022-08-19T08:13:27;17.20;;;15.43;;
43801;SDS011;29429;51.074;13.764;2022-08-19T08:15:54;19.85;;;17.67;;
43801;SDS011;29429;51.074;13.764;2022-08-19T08:18:23;19.88;;;17.55;;
43801;SDS011;29429;51.074;13.764;2022-08-19T08:20:55;19.50;;;17.60;;
43801;SDS011;29429;51.074;13.764;2022-08-19T08:23:24;20.83;;;17.77;;
43801;SDS011;29429;51.074;13.764;2022-08-19T08:25:53;18.77;;;16.77;;
43801;SDS011;29429;51.074;13.764;2022-08-19T08:28:24;19.05;;;17.13;;
43801;SDS011;29429;51.074;13.764;2022-08-19T08:30:54;18.08;;;16.13;;
43801;SDS011;29429;51.074;13.764;2022-08-19T08:33:23;16.85;;;15.05;;
43801;SDS011;29429;51.074;13.764;2022-08-19T08:36:06;19.08;;;16.95;;
43801;SDS011;29429;51.074;13.764;2022-08-19T08:38:37;18.15;;;16.27;;
43801;SDS011;29429;51.074;13.764;2022-08-19T08:47:28;14.82;;;13.38;;
43801;SDS011;29429;51.074;13.764;2022-08-19T08:52:45;15.20;;;13.55;;
43801;SDS011;29429;51.074;13.764;2022-08-19T08:55:19;14.18;;;12.77;;
43801;SDS011;29429;51.074;13.764;2022-08-19T08:58:47;14.43;;;13.02;;
43801;SDS011;29429;51.074;13.764;2022-08-19T09:00:57;16.10;;;14.48;;
43801;SDS011;29429;51.074;13.764;2022-08-19T09:03:26;14.60;;;13.07;;
43801;SDS011;29429;51.074;13.764;2022-08-19T09:06:04;12.70;;;11.40;;
43801;SDS011;29429;51.074;13.764;2022-08-19T09:08:58;12.87;;;11.77;;
43801;SDS011;29429;51.074;13.764;2022-08-19T09:17:16;13.25;;;11.85;;
43801;SDS011;29429;51.074;13.764;2022-08-19T09:22:51;14.93;;;13.10;;
43801;SDS011;29429;51.074;13.764;2022-08-19T09:25:19;14.25;;;12.82;;
43801;SDS011;29429;51.074;13.764;2022-08-19T09:27:54;15.10;;;12.20;;
43801;SDS011;29429;51.074;13.764;2022-08-19T09:30:29;17.77;;;13.87;;
43801;SDS011;29429;51.074;13.764;2022-08-19T09:33:00;13.32;;;12.00;;
43801;SDS011;29429;51.074;13.764;2022-08-19T09:35:28;12.77;;;11.57;;
43801;SDS011;29429;51.074;13.764;2022-08-19T09:37:57;14.85;;;13.35;;
43801;SDS011;29429;51.074;13.764;2022-08-19T09:40:26;14.30;;;12.80;;
43801;SDS011;29429;51.074;13.764;2022-08-19T09:42:56;13.15;;;11.90;;
43801;SDS011;29429;51.074;13.764;2022-08-19T09:45:26;15.02;;;13.43;;
43801;SDS011;29429;51.074;13.764;2022-08-19T09:47:53;13.80;;;12.40;;
43801;SDS011;29429;51.074;13.764;2022-08-19T09:50:21;15.40;;;13.80;;
43801;SDS011;29429;51.074;13.764;2022-08-19T09:52:50;16.02;;;13.73;;
43801;SDS011;29429;51.074;13.764;2022-08-19T09:55:23;13.57;;;12.27;;
43801;SDS011;29429;51.074;13.764;2022-08-19T10:00:26;12.77;;;11.50;;
43801;SDS011;29429;51.074;13.764;2022-08-19T10:02:53;13.98;;;12.18;;
43801;SDS011;29429;51.074;13.764;2022-08-19T10:05:20;13.88;;;12.38;;
43801;SDS011;29429;51.074;13.764;2022-08-19T10:08:08;13.60;;;12.25;;
43801;SDS011;29429;51.074;13.764;2022-08-19T10:10:40;13.10;;;11.80;;
43801;SDS011;29429;51.074;13.764;2022-08-19T10:13:12;12.73;;;11.15;;
43801;SDS011;29429;51.074;13.764;2022-08-19T10:15:43;12.40;;;11.20;;
43801;SDS011;29429;51.074;13.764;2022-08-19T10:18:14;12.20;;;10.93;;
43801;SDS011;29429;51.074;13.764;2022-08-19T10:20:46;11.70;;;10.50;;
43801;SDS011;29429;51.074;13.764;2022-08-19T10:23:17;10.57;;;9.48;;
43801;SDS011;29429;51.074;13.764;2022-08-19T10:25:46;10.32;;;9.20;;
43801;SDS011;29429;51.074;13.764;2022-08-19T10:28:14;9.95;;;8.95;;
43801;SDS011;29429;51.074;13.764;2022-08-19T10:30:44;8.77;;;7.97;;
43801;SDS011;29429;51.074;13.764;2022-08-19T10:33:11;9.40;;;8.45;;
43801;SDS011;29429;51.074;13.764;2022-08-19T10:35:38;8.45;;;7.65;;
43801;SDS011;29429;51.074;13.764;2022-08-19T10:38:22;8.63;;;7.80;;
43801;SDS011;29429;51.074;13.764;2022-08-19T10:41:05;9.07;;;7.70;;
43801;SDS011;29429;51.074;13.764;2022-08-19T10:43:53;9.20;;;8.30;;
43801;SDS011;29429;51.074;13.764;2022-08-19T10:46:30;9.18;;;8.27;;
43801;SDS011;29429;51.074;13.764;2022-08-19T10:48:59;8.80;;;7.90;;
43801;SDS011;29429;51.074;13.764;2022-08-19T10:51:28;8.73;;;7.63;;
43801;SDS011;29429;51.074;13.764;2022-08-19T10:54:15;8.50;;;7.60;;
43801;SDS011;29429;51.074;13.764;2022-08-19T10:56:56;9.70;;;8.45;;
43801;SDS011;29429;51.074;13.764;2022-08-19T10:59:24;8.80;;;8.00;;
43801;SDS011;29429;51.074;13.764;2022-08-19T11:02:01;10.25;;;7.78;;
43801;SDS011;29429;51.074;13.764;2022-08-19T11:04:31;8.30;;;7.50;;
43801;SDS011;29429;51.074;13.764;2022-08-19T11:07:01;7.30;;;6.60;;
43801;SDS011;29429;51.074;13.764;2022-08-19T11:09:28;8.48;;;7.63;;
43801;SDS011;29429;51.074;13.764;2022-08-19T11:11:59;7.50;;;6.70;;
43801;SDS011;29429;51.074;13.764;2022-08-19T11:14:55;6.85;;;6.15;;
43801;SDS011;29429;51.074;13.764;2022-08-19T11:17:23;7.70;;;7.00;;
43801;SDS011;29429;51.074;13.764;2022-08-19T11:19:50;7.60;;;6.90;;
43801;SDS011;29429;51.074;13.764;2022-08-19T11:22:17;10.77;;;7.22;;
43801;SDS011;29429;51.074;13.764;2022-08-19T11:24:44;8.73;;;7.40;;
43801;SDS011;29429;51.074;13.764;2022-08-19T11:27:11;8.55;;;7.78;;
43801;SDS011;29429;51.074;13.764;2022-08-19T11:29:38;10.27;;;9.27;;
43801;SDS011;29429;51.074;13.764;2022-08-19T11:32:06;11.57;;;9.20;;
43801;SDS011;29429;51.074;13.764;2022-08-19T11:34:36;9.88;;;8.57;;
43801;SDS011;29429;51.074;13.764;2022-08-19T11:37:03;10.05;;;9.10;;
43801;SDS011;29429;51.074;13.764;2022-08-19T11:39:32;10.52;;;9.38;;
43801;SDS011;29429;51.074;13.764;2022-08-19T11:42:00;10.35;;;9.35;;
43801;SDS011;29429;51.074;13.764;2022-08-19T11:44:29;10.32;;;9.23;;
43801;SDS011;29429;51.074;13.764;2022-08-19T11:46:56;10.27;;;9.38;;
43801;SDS011;29429;51.074;13.764;2022-08-19T11:49:34;10.15;;;9.00;;
43801;SDS011;29429;51.074;13.764;2022-08-19T11:52:02;10.98;;;9.88;;
43801;SDS011;29429;51.074;13.764;2022-08-19T11:54:29;10.38;;;9.05;;
43801;SDS011;29429;51.074;13.764;2022-08-19T11:56:57;10.98;;;9.75;;
43801;SDS011;29429;51.074;13.764;2022-08-19T11:59:24;10.98;;;9.88;;
43801;SDS011;29429;51.074;13.764;2022-08-19T12:01:52;10.48;;;9.32;;
43801;SDS011;29429;51.074;13.764;2022-08-19T12:04:19;10.82;;;9.35;;
43801;SDS011;29429;51.074;13.764;2022-08-19T12:06:46;11.45;;;10.25;;
43801;SDS011;29429;51.074;13.764;2022-08-19T12:09:14;11.45;;;10.25;;
43801;SDS011;29429;51.074;13.764;2022-08-19T12:11:41;12.70;;;11.40;;
43801;SDS011;29429;51.074;13.764;2022-08-19T12:14:09;14.73;;;12.85;;
43801;SDS011;29429;51.074;13.764;2022-08-19T12:16:43;14.10;;;12.27;;
43801;SDS011;29429;51.074;13.764;2022-08-19T12:19:17;15.23;;;13.55;;
43801;SDS011;29429;51.074;13.764;2022-08-19T12:21:47;16.27;;;13.95;;
43801;SDS011;29429;51.074;13.764;2022-08-19T12:24:15;18.17;;;15.98;;
43801;SDS011;29429;51.074;13.764;2022-08-19T12:26:49;16.27;;;14.57;;
43801;SDS011;29429;51.074;13.764;2022-08-19T12:29:19;15.43;;;13.85;;
43801;SDS011;29429;51.074;13.764;2022-08-19T12:31:49;19.63;;;16.88;;
43801;SDS011;29429;51.074;13.764;2022-08-19T12:34:17;15.95;;;13.85;;
43801;SDS011;29429;51.074;13.764;2022-08-19T12:36:46;19.65;;;17.30;;
43801;SDS011;29429;51.074;13.764;2022-08-19T12:39:15;19.25;;;17.23;;
43801;SDS011;29429;51.074;13.764;2022-08-19T12:41:42;21.20;;;16.38;;
43801;SDS011;29429;51.074;13.764;2022-08-19T12:44:20;17.63;;;15.50;;
43801;SDS011;29429;51.074;13.764;2022-08-19T12:46:57;17.10;;;15.10;;
43801;SDS011;29429;51.074;13.764;2022-08-19T12:49:27;20.23;;;17.38;;
43801;SDS011;29429;51.074;13.764;2022-08-19T12:52:15;17.20;;;14.80;;
43801;SDS011;29429;51.074;13.764;2022-08-19T12:54:48;17.25;;;15.18;;
43801;SDS011;29429;51.074;13.764;2022-08-19T12:57:20;15.15;;;13.20;;
43801;SDS011;29429;51.074;13.764;2022-08-19T12:59:59;17.90;;;16.00;;
43801;SDS011;29429;51.074;13.764;2022-08-19T13:02:35;17.95;;;13.82;;
43801;SDS011;29429;51.074;13.764;2022-08-19T13:05:04;17.65;;;14.50;;
43801;SDS011;29429;51.074;13.764;2022-08-19T13:07:35;19.60;;;15.85;;
43801;SDS011;29429;51.074;13.764;2022-08-19T13:10:05;15.32;;;13.43;;
43801;SDS011;29429;51.074;13.764;2022-08-19T13:12:35;17.27;;;15.43;;
43801;SDS011;29429;51.074;13.764;2022-08-19T13:15:02;16.95;;;14.13;;
43801;SDS011;29429;51.074;13.764;2022-08-19T13:20:05;16.42;;;13.05;;
43801;SDS011;29429;51.074;13.764;2022-08-19T13:22:35;14.68;;;12.57;;
43801;SDS011;29429;51.074;13.764;2022-08-19T13:25:04;13.60;;;12.20;;
43801;SDS011;29429;51.074;13.764;2022-08-19T13:27:33;16.65;;;14.90;;
43801;SDS011;29429;51.074;13.764;2022-08-19T13:30:01;15.80;;;13.30;;
43801;SDS011;29429;51.074;13.764;2022-08-19T13:32:48;18.48;;;15.52;;
43801;SDS011;29429;51.074;13.764;2022-08-19T13:35:34;16.95;;;15.25;;
43801;SDS011;29429;51.074;13.764;2022-08-19T13:38:01;18.92;;;16.70;;
43801;SDS011;29429;51.074;13.764;2022-08-19T13:40:31;20.90;;;17.38;;
43801;SDS011;29429;51.074;13.764;2022-08-19T13:43:04;19.00;;;17.00;;
43801;SDS011;29429;51.074;13.764;2022-08-19T13:45:49;18.48;;;16.02;;
43801;SDS011;29429;51.074;13.764;2022-08-19T13:48:23;16.10;;;14.40;;
43801;SDS011;29429;51.074;13.764;2022-08-19T13:50:53;22.05;;;19.38;;
43801;SDS011;29429;51.074;13.764;2022-08-19T13:53:20;19.02;;;17.02;;
43801;SDS011;29429;51.074;13.764;2022-08-19T13:55:47;23.27;;;19.17;;
43801;SDS011;29429;51.074;13.764;2022-08-19T13:58:16;18.00;;;15.77;;
43801;SDS011;29429;51.074;13.764;2022-08-19T14:00:44;21.88;;;19.50;;
43801;SDS011;29429;51.074;13.764;2022-08-19T14:03:13;21.83;;;19.17;;
43801;SDS011;29429;51.074;13.764;2022-08-19T14:05:40;22.98;;;19.95;;
43801;SDS011;29429;51.074;13.764;2022-08-19T14:08:07;24.23;;;21.25;;
43801;SDS011;29429;51.074;13.764;2022-08-19T14:10:35;22.85;;;19.30;;
43801;SDS011;29429;51.074;13.764;2022-08-19T14:13:02;20.42;;;18.27;;
43801;SDS011;29429;51.074;13.764;2022-08-19T14:15:30;21.33;;;18.17;;
43801;SDS011;29429;51.074;13.764;2022-08-19T14:17:58;22.30;;;19.88;;
43801;SDS011;29429;51.074;13.764;2022-08-19T14:20:25;21.08;;;18.77;;
43801;SDS011;29429;51.074;13.764;2022-08-19T14:22:52;22.73;;;18.92;;
43801;SDS011;29429;51.074;13.764;2022-08-19T14:25:23;21.38;;;18.27;;
43801;SDS011;29429;51.074;13.764;2022-08-19T14:27:54;26.15;;;21.15;;
43801;SDS011;29429;51.074;13.764;2022-08-19T14:30:27;25.25;;;21.23;;
43801;SDS011;29429;51.074;13.764;2022-08-19T14:32:59;24.50;;;21.58;;
43801;SDS011;29429;51.074;13.764;2022-08-19T14:35:29;22.05;;;19.67;;
43801;SDS011;29429;51.074;13.764;2022-08-19T14:38:02;21.97;;;19.17;;
43801;SDS011;29429;51.074;13.764;2022-08-19T14:40:31;19.17;;;17.17;;
43801;SDS011;29429;51.074;13.764;2022-08-19T14:42:59;23.80;;;18.83;;
43801;SDS011;29429;51.074;13.764;2022-08-19T14:45:34;21.77;;;19.48;;
43801;SDS011;29429;51.074;13.764;2022-08-19T14:48:06;26.75;;;21.63;;
43801;SDS011;29429;51.074;13.764;2022-08-19T14:50:44;30.23;;;23.65;;
43801;SDS011;29429;51.074;13.764;2022-08-19T14:53:11;28.08;;;23.02;;
43801;SDS011;29429;51.074;13.764;2022-08-19T14:55:45;25.15;;;20.50;;
43801;SDS011;29429;51.074;13.764;2022-08-19T14:58:13;27.05;;;22.45;;
43801;SDS011;29429;51.074;13.764;2022-08-19T15:00:55;23.83;;;20.80;;